Time;durP1;ratioP1;P1;durP2;ratioP2;P2;SDS_P1;SDS_P2;PMS_P1;PMS_P2;Temp;Humidity;BMP_temperature;BMP_pressure;BME280_temperature;BME280_humidity;BME280_pressure;Samples;Min_cycle;Max_cycle;Signal;HPM_P1;HPM_P2
2024/02/21 00:01:15;;;;;;;;;;;;;;;;;;5102548;28;19951;-76
2024/02/21 00:03:42;;;;;;;;;;;;;;;;;;5103221;28;19930;-77
2024/02/21 00:06:09;;;;;;;;;;;;;;;;;;5096595;28;19924;-75
2024/02/21 00:08:35;;;;;;;;;;;;;;;;;;5105244;28;19930;-74
2024/02/21 00:11:02;;;;;;;;;;;;;;;;;;5104493;28;19930;-76
2024/02/21 00:13:28;;;;;;;;;;;;;;;;;;5100544;28;19967;-77
2024/02/21 00:15:54;;;;;;;;;;;;;;;;;;5107094;28;19928;-76
2024/02/21 00:18:21;;;;;;;;;;;;;;;;;;5100543;28;19931;-76
2024/02/21 00:20:49;;;;;;;;;;;;;;;;;;5097353;28;20011;-75
2024/02/21 00:23:15;;;;;;;;;;;;;;;;;;5097429;28;19931;-76
2024/02/21 00:25:41;;;;;;;;;;;;;;;;;;5105532;28;20288;-76
2024/02/21 00:28:08;;;;;;;;;;;;;;;;;;5099059;28;19924;-75
2024/02/21 00:30:34;;;;;;;;;;;;;;;;;;5111030;28;19924;-76
2024/02/21 00:33:00;;;;;;;;;;;;;;;;;;5107269;28;19930;-76
2024/02/21 00:35:27;;;;;;;;;;;;;;;;;;5106760;28;20438;-78
2024/02/21 00:37:53;;;;;;;;;;;;;;;;;;5110911;28;19924;-76
2024/02/21 00:40:21;;;;;;;;;;;;;;;;;;5114395;28;19928;-75
2024/02/21 00:42:48;;;;;;;;;;;;;;;;;;5101681;28;20389;-75
2024/02/21 00:45:14;;;;;;;;;;;;;;;;;;5105200;28;20040;-76
2024/02/21 00:47:41;;;;;;;;;;;;;;;;;;5105393;28;19924;-77
2024/02/21 00:50:07;;;;;;;;;;;;;;;;;;5105766;28;19935;-76
2024/02/21 00:52:35;;;;;;;;;;;;;;;;;;5105010;28;20292;-76
2024/02/21 00:55:02;;;;;;;;;;;;;;;;;;5106444;28;20396;-77
2024/02/21 00:57:28;;;;;;;;;;;;;;;;;;5107730;28;20010;-74
2024/02/21 00:59:55;;;;;;;;;;;;;;;;;;5096199;28;19931;-76
2024/02/21 01:02:21;;;;;;;;;;;;;;;;;;5105140;28;19932;-77
2024/02/21 01:04:47;;;;;;;;;;;;;;;;;;5102052;28;19923;-77
2024/02/21 01:07:14;;;;;;;;;;;;;;;;;;5110821;28;19928;-76
2024/02/21 01:09:40;;;;;;;;;;;;;;;;;;5103725;28;20318;-77
2024/02/21 01:12:07;;;;;;;;;;;;;;;;;;5106457;28;19928;-74
2024/02/21 01:14:33;;;;;;;;;;;;;;;;;;5109644;28;19928;-74
2024/02/21 01:17:00;;;;;;;;;;;;;;;;;;5110050;28;19950;-76
2024/02/21 01:19:26;;;;;;;;;;;;;;;;;;5107435;28;19933;-74
2024/02/21 01:21:53;;;;;;;;;;;;;;;;;;5106961;28;19924;-76
2024/02/21 01:24:19;;;;;;;;;;;;;;;;;;5110727;28;20026;-76
2024/02/21 01:26:46;;;;;;;;;;;;;;;;;;5103299;28;19928;-76
2024/02/21 01:29:13;;;;;;;;;;;;;;;;;;5102643;28;19924;-76
2024/02/21 01:31:39;;;;;;;;;;;;;;;;;;5109156;28;19924;-77
2024/02/21 01:34:05;;;;;;;;;;;;;;;;;;5099726;28;19924;-77
2024/02/21 01:36:31;;;;;;;;;;;;;;;;;;5096972;28;19931;-75
2024/02/21 01:38:58;;;;;;;;;;;;;;;;;;5107700;28;19923;-76
2024/02/21 01:41:24;;;;;;;;;;;;;;;;;;5109609;28;19924;-77
2024/02/21 01:43:50;;;;;;;;;;;;;;;;;;5112060;28;19924;-76
2024/02/21 01:46:17;;;;;;;;;;;;;;;;;;5104411;28;19927;-75
2024/02/21 01:48:45;;;;;;;;;;;;;;;;;;5110519;28;19923;-76
2024/02/21 01:51:13;;;;;;;;;;;;;;;;;;5109110;28;19924;-75
2024/02/21 01:53:39;;;;;;;;;;;;;;;;;;5108752;28;19930;-75
2024/02/21 01:56:06;;;;;;;;;;;;;;;;;;5110972;28;19982;-75
2024/02/21 01:58:32;;;;;;;;;;;;;;;;;;5106904;28;19924;-77
2024/02/21 02:00:58;;;;;;;;;;;;;;;;;;5104641;28;20431;-76
2024/02/21 02:03:25;;;;;;;;;;;;;;;;;;5108751;28;19930;-77
2024/02/21 02:05:52;;;;;;;;;;;;;;;;;;5106694;28;19923;-73
2024/02/21 02:08:18;;;;;;;;;;;;;;;;;;5110869;28;20382;-75
2024/02/21 02:10:44;;;;;;;;;;;;;;;;;;5102989;28;19924;-75
2024/02/21 02:13:11;;;;;;;;;;;;;;;;;;5106081;28;19924;-77
2024/02/21 02:15:37;;;;;;;;;;;;;;;;;;5086891;28;19990;-77
2024/02/21 02:18:04;;;;;;;;;;;;;;;;;;5107837;28;19928;-75
2024/02/21 02:20:30;;;;;;;;;;;;;;;;;;5103794;28;20396;-78
2024/02/21 02:22:57;;;;;;;;;;;;;;;;;;5105986;28;19928;-76
2024/02/21 02:25:23;;;;;;;;;;;;;;;;;;5101793;28;19924;-77
2024/02/21 02:27:49;;;;;;;;;;;;;;;;;;5109976;28;20006;-77
2024/02/21 02:30:16;;;;;;;;;;;;;;;;;;5103943;27;20385;-77
2024/02/21 02:32:42;;;;;;;;;;;;;;;;;;5112554;28;19923;-75
2024/02/21 02:35:09;;;;;;;;;;;;;;;;;;5103625;28;19924;-76
2024/02/21 02:37:35;;;;;;;;;;;;;;;;;;5107107;28;19928;-74
2024/02/21 02:40:02;;;;;;;;;;;;;;;;;;5111601;28;19930;-76
2024/02/21 02:42:29;;;;;;;;;;;;;;;;;;5087787;28;19935;-75
2024/02/21 02:44:57;;;;;;;;;;;;;;;;;;5108409;28;19928;-76
2024/02/21 02:47:23;;;;;;;;;;;;;;;;;;5103918;28;20321;-74
2024/02/21 02:49:50;;;;;;;;;;;;;;;;;;5106723;28;19930;-75
2024/02/21 02:52:17;;;;;;;;;;;;;;;;;;5103144;28;20454;-75
2024/02/21 02:54:44;;;;;;;;;;;;;;;;;;5099037;28;20037;-76
2024/02/21 02:57:10;;;;;;;;;;;;;;;;;;5100547;28;19924;-75
2024/02/21 02:59:36;;;;;;;;;;;;;;;;;;5106144;28;19927;-74
2024/02/21 03:02:03;;;;;;;;;;;;;;;;;;5105507;28;20495;-77
2024/02/21 03:04:29;;;;;;;;;;;;;;;;;;5099067;28;19928;-75
2024/02/21 03:06:56;;;;;;;;;;;;;;;;;;5107037;28;19934;-76
2024/02/21 03:09:22;;;;;;;;;;;;;;;;;;5107443;28;19924;-75
2024/02/21 03:11:49;;;;;;;;;;;;;;;;;;5105368;28;19932;-77
2024/02/21 03:14:15;;;;;;;;;;;;;;;;;;5109030;28;19928;-75
2024/02/21 03:16:41;;;;;;;;;;;;;;;;;;5101881;28;20353;-77
2024/02/21 03:19:08;;;;;;;;;;;;;;;;;;5106485;28;19928;-76
2024/02/21 03:21:34;;;;;;;;;;;;;;;;;;5100120;28;19924;-77
2024/02/21 03:24:00;;;;;;;;;;;;;;;;;;5103475;28;19924;-77
2024/02/21 03:26:27;;;;;;;;;;;;;;;;;;5103607;28;19927;-75
2024/02/21 03:28:54;;;;;;;;;;;;;;;;;;5109164;28;19939;-73
2024/02/21 03:31:20;;;;;;;;;;;;;;;;;;5107695;28;20433;-74
2024/02/21 03:33:46;;;;;;;;;;;;;;;;;;5102174;28;19924;-76
2024/02/21 03:36:13;;;;;;;;;;;;;;;;;;5102644;28;19969;-75
2024/02/21 03:38:39;;;;;;;;;;;;;;;;;;5097951;28;19951;-75
2024/02/21 03:41:06;;;;;;;;;;;;;;;;;;5101414;28;19924;-76
2024/02/21 03:43:32;;;;;;;;;;;;;;;;;;5103335;28;20583;-77
2024/02/21 03:45:59;;;;;;;;;;;;;;;;;;5100278;28;19950;-77
2024/02/21 03:48:25;;;;;;;;;;;;;;;;;;5102660;28;19923;-75
2024/02/21 03:50:51;;;;;;;;;;;;;;;;;;5110673;28;19931;-75
2024/02/21 03:53:18;;;;;;;;;;;;;;;;;;5105406;28;19975;-74
2024/02/21 03:55:44;;;;;;;;;;;;;;;;;;5085423;28;19924;-75
2024/02/21 03:58:11;;;;;;;;;;;;;;;;;;5106178;28;19924;-75
2024/02/21 04:00:39;;;;;;;;;;;;;;;;;;5104222;28;19927;-77
2024/02/21 04:03:06;;;;;;;;;;;;;;;;;;5103152;28;19924;-74
2024/02/21 04:05:33;;;;;;;;;;;;;;;;;;5103938;28;20435;-77
2024/02/21 04:07:59;;;;;;;;;;;;;;;;;;5102548;28;20334;-77
2024/02/21 04:10:25;;;;;;;;;;;;;;;;;;5101561;28;19978;-76
2024/02/21 04:12:52;;;;;;;;;;;;;;;;;;5106927;28;19932;-75
2024/02/21 04:15:19;;;;;;;;;;;;;;;;;;5092951;28;20000;-74
2024/02/21 04:17:45;;;;;;;;;;;;;;;;;;5098526;28;19930;-76
2024/02/21 04:20:12;;;;;;;;;;;;;;;;;;5103225;28;20033;-75
2024/02/21 04:22:38;;;;;;;;;;;;;;;;;;5099621;28;19928;-76
2024/02/21 04:25:04;;;;;;;;;;;;;;;;;;5100659;28;19932;-77
2024/02/21 04:27:31;;;;;;;;;;;;;;;;;;5105525;28;19924;-76
2024/02/21 04:29:58;;;;;;;;;;;;;;;;;;5104791;28;19981;-73
2024/02/21 04:32:24;;;;;;;;;;;;;;;;;;5108360;28;19928;-76
2024/02/21 04:34:51;;;;;;;;;;;;;;;;;;5106632;28;20016;-74
2024/02/21 04:37:17;;;;;;;;;;;;;;;;;;5099531;28;19928;-76
2024/02/21 04:39:44;;;;;;;;;;;;;;;;;;5103217;28;19924;-76
2024/02/21 04:42:10;;;;;;;;;;;;;;;;;;5103869;28;19924;-74
2024/02/21 04:44:37;;;;;;;;;;;;;;;;;;5105723;28;20023;-75
2024/02/21 04:47:04;;;;;;;;;;;;;;;;;;5103307;28;19925;-75
2024/02/21 04:49:30;;;;;;;;;;;;;;;;;;5098721;28;19936;-76
2024/02/21 04:51:57;;;;;;;;;;;;;;;;;;5102133;28;20022;-76
2024/02/21 04:54:23;;;;;;;;;;;;;;;;;;5097100;28;19925;-75
2024/02/21 04:56:49;;;;;;;;;;;;;;;;;;5107164;28;19923;-75
2024/02/21 04:59:18;;;;;;;;;;;;;;;;;;5106458;28;19928;-75
2024/02/21 05:01:45;;;;;;;;;;;;;;;;;;5101559;28;19928;-77
2024/02/21 05:04:11;;;;;;;;;;;;;;;;;;5106002;28;20011;-75
2024/02/21 05:06:38;;;;;;;;;;;;;;;;;;5086320;28;20583;-77
2024/02/21 05:09:04;;;;;;;;;;;;;;;;;;5103371;28;19935;-76
2024/02/21 05:11:31;;;;;;;;;;;;;;;;;;5102533;28;20027;-73
2024/02/21 05:13:57;;;;;;;;;;;;;;;;;;5098390;28;19928;-74
2024/02/21 05:16:24;;;;;;;;;;;;;;;;;;5107402;28;19967;-76
2024/02/21 05:18:50;;;;;;;;;;;;;;;;;;5108524;28;19930;-76
2024/02/21 05:21:17;;;;;;;;;;;;;;;;;;5105026;28;19924;-75
2024/02/21 05:23:43;;;;;;;;;;;;;;;;;;5111623;28;19930;-76
2024/02/21 05:26:09;;;;;;;;;;;;;;;;;;5106686;28;20387;-75
2024/02/21 05:28:36;;;;;;;;;;;;;;;;;;5102608;28;19924;-75
2024/02/21 05:31:02;;;;;;;;;;;;;;;;;;5103186;28;20333;-76
2024/02/21 05:33:28;;;;;;;;;;;;;;;;;;5106216;28;19967;-75
2024/02/21 05:35:55;;;;;;;;;;;;;;;;;;5102865;28;19924;-76
2024/02/21 05:38:21;;;;;;;;;;;;;;;;;;5104362;28;19959;-76
2024/02/21 05:40:48;;;;;;;;;;;;;;;;;;5109678;28;19931;-76
2024/02/21 05:43:14;;;;;;;;;;;;;;;;;;5108420;28;20019;-76
2024/02/21 05:45:40;;;;;;;;;;;;;;;;;;5106695;28;20003;-75
2024/02/21 05:48:07;;;;;;;;;;;;;;;;;;5110776;28;19924;-77
2024/02/21 05:50:33;;;;;;;;;;;;;;;;;;5110357;28;19923;-75
2024/02/21 05:53:00;;;;;;;;;;;;;;;;;;5106622;28;20368;-74
2024/02/21 05:55:27;;;;;;;;;;;;;;;;;;5102647;28;19923;-76
2024/02/21 05:57:55;;;;;;;;;;;;;;;;;;5111197;28;19924;-75
2024/02/21 06:00:21;;;;;;;;;;;;;;;;;;5103085;28;19930;-76
2024/02/21 06:02:47;;;;;;;;;;;;;;;;;;5106823;28;19924;-76
2024/02/21 06:05:14;;;;;;;;;;;;;;;;;;5104013;28;19924;-76
2024/02/21 06:07:40;;;;;;;;;;;;;;;;;;5107850;28;20041;-77
2024/02/21 06:10:07;;;;;;;;;;;;;;;;;;5082465;28;19924;-74
2024/02/21 06:12:33;;;;;;;;;;;;;;;;;;5107860;28;20022;-76
2024/02/21 06:14:59;;;;;;;;;;;;;;;;;;5095049;28;20010;-74
2024/02/21 06:17:26;;;;;;;;;;;;;;;;;;5103753;28;20377;-76
2024/02/21 06:19:52;;;;;;;;;;;;;;;;;;5102952;28;19924;-76
2024/02/21 06:22:19;;;;;;;;;;;;;;;;;;5094959;28;20026;-76
2024/02/21 06:24:45;;;;;;;;;;;;;;;;;;5097101;28;19977;-76
2024/02/21 06:27:11;;;;;;;;;;;;;;;;;;5107124;28;19984;-75
2024/02/21 06:29:38;;;;;;;;;;;;;;;;;;5107022;28;19924;-76
2024/02/21 06:32:04;;;;;;;;;;;;;;;;;;5113354;28;19931;-75
2024/02/21 06:34:31;;;;;;;;;;;;;;;;;;5101960;28;19924;-74
2024/02/21 06:36:59;;;;;;;;;;;;;;;;;;5106293;27;19928;-75
2024/02/21 06:39:26;;;;;;;;;;;;;;;;;;5105576;28;19988;-75
2024/02/21 06:41:53;;;;;;;;;;;;;;;;;;5109012;28;19924;-76
2024/02/21 06:44:21;;;;;;;;;;;;;;;;;;5104107;28;19928;-76
2024/02/21 06:46:47;;;;;;;;;;;;;;;;;;5102996;28;19962;-75
2024/02/21 06:49:15;;;;;;;;;;;;;;;;;;5100067;28;20269;-76
2024/02/21 06:51:42;;;;;;;;;;;;;;;;;;5104173;28;20291;-77
2024/02/21 06:54:12;;;;;;;;;;;;;;;;;;5102962;28;19951;-75
2024/02/21 06:56:38;;;;;;;;;;;;;;;;;;5096946;28;19924;-74
2024/02/21 06:59:04;;;;;;;;;;;;;;;;;;5104890;28;20019;-74
2024/02/21 07:01:31;;;;;;;;;;;;;;;;;;5104183;28;19931;-76
2024/02/21 07:03:57;;;;;;;;;;;;;;;;;;5093589;28;19927;-75
2024/02/21 07:06:24;;;;;;;;;;;;;;;;;;5094489;28;19959;-75
2024/02/21 07:08:50;;;;;;;;;;;;;;;;;;5105678;28;19984;-77
2024/02/21 07:11:16;;;;;;;;;;;;;;;;;;5086027;28;19934;-77
2024/02/21 07:13:43;;;;;;;;;;;;;;;;;;5108774;28;20038;-77
2024/02/21 07:16:10;;;;;;;;;;;;;;;;;;5107594;28;19924;-77
2024/02/21 07:18:36;;;;;;;;;;;;;;;;;;5106075;28;19971;-75
2024/02/21 07:21:02;;;;;;;;;;;;;;;;;;5111064;28;19924;-75
2024/02/21 07:23:29;;;;;;;;;;;;;;;;;;5096808;28;19924;-75
2024/02/21 07:25:57;;;;;;;;;;;;;;;;;;5103342;28;21464;-76
2024/02/21 07:28:24;;;;;;;;;;;;;;;;;;5107059;28;19923;-75
2024/02/21 07:30:50;;;;;;;;;;;;;;;;;;5104023;28;19924;-75
2024/02/21 07:33:16;;;;;;;;;;;;;;;;;;5106626;28;20353;-75
2024/02/21 07:35:44;;;;;;;;;;;;;;;;;;5100055;28;19962;-75
2024/02/21 07:38:12;;;;;;;;;;;;;;;;;;5080317;28;19928;-74
2024/02/21 07:40:39;;;;;;;;;;;;;;;;;;5096883;28;20015;-76
2024/02/21 07:43:05;;;;;;;;;;;;;;;;;;5110192;28;19924;-77
2024/02/21 07:45:32;;;;;;;;;;;;;;;;;;5104029;28;19977;-73
2024/02/21 07:47:58;;;;;;;;;;;;;;;;;;5106204;28;19924;-74
2024/02/21 07:50:24;;;;;;;;;;;;;;;;;;5099324;28;20006;-74
2024/02/21 07:52:51;;;;;;;;;;;;;;;;;;5105066;28;19977;-75
2024/02/21 07:55:17;;;;;;;;;;;;;;;;;;5107034;28;19928;-75
2024/02/21 07:57:44;;;;;;;;;;;;;;;;;;5102874;28;19950;-74
2024/02/21 08:00:17;;;;;;;;;;;;;;;;;;5102758;28;19953;-74
2024/02/21 08:02:43;;;;;;;;;;;;;;;;;;5103401;28;20015;-74
2024/02/21 08:05:12;;;;;;;;;;;;;;;;;;5095766;28;19928;-74
2024/02/21 08:07:38;;;;;;;;;;;;;;;;;;5104697;28;19923;-74
2024/02/21 08:10:07;;;;;;;;;;;;;;;;;;5097349;28;19978;-76
2024/02/21 08:12:33;;;;;;;;;;;;;;;;;;5102357;28;20014;-75
2024/02/21 08:15:00;;;;;;;;;;;;;;;;;;5094639;28;20023;-74
2024/02/21 08:17:26;;;;;;;;;;;;;;;;;;5102613;28;20300;-74
2024/02/21 08:19:53;;;;;;;;;;;;;;;;;;5099369;28;19930;-75
2024/02/21 08:22:19;;;;;;;;;;;;;;;;;;5100182;28;19997;-75
2024/02/21 08:24:47;;;;;;;;;;;;;;;;;;5107816;28;19980;-75
2024/02/21 08:27:13;;;;;;;;;;;;;;;;;;5100687;28;20376;-75
2024/02/21 08:29:39;;;;;;;;;;;;;;;;;;5104649;28;19928;-74
2024/02/21 08:32:06;;;;;;;;;;;;;;;;;;5100033;28;19959;-76
2024/02/21 08:34:34;;;;;;;;;;;;;;;;;;5102882;28;19923;-75
2024/02/21 08:37:00;;;;;;;;;;;;;;;;;;5105491;28;19930;-76
2024/02/21 08:39:28;;;;;;;;;;;;;;;;;;5107018;28;20307;-75
2024/02/21 08:41:54;;;;;;;;;;;;;;;;;;5102836;28;19924;-74
2024/02/21 08:44:24;;;;;;;;;;;;;;;;;;5103223;28;19931;-76
2024/02/21 08:46:50;;;;;;;;;;;;;;;;;;5101934;28;19924;-73
2024/02/21 08:49:17;;;;;;;;;;;;;;;;;;5099692;28;19932;-75
2024/02/21 08:51:43;;;;;;;;;;;;;;;;;;5109916;28;20015;-75
2024/02/21 08:54:10;;;;;;;;;;;;;;;;;;5108459;28;20342;-76
2024/02/21 08:56:36;;;;;;;;;;;;;;;;;;5109321;28;19931;-72
2024/02/21 08:59:03;;;;;;;;;;;;;;;;;;5108360;28;19924;-74
2024/02/21 09:01:30;;;;;;;;;;;;;;;;;;5101132;28;19928;-73
2024/02/21 09:03:57;;;;;;;;;;;;;;;;;;5102864;28;19924;-74
2024/02/21 09:06:23;;;;;;;;;;;;;;;;;;5101299;28;19951;-75
2024/02/21 09:08:50;;;;;;;;;;;;;;;;;;5102677;28;19927;-74
2024/02/21 09:11:16;;;;;;;;;;;;;;;;;;5103873;28;19924;-75
2024/02/21 09:13:43;;;;;;;;;;;;;;;;;;5105961;28;19969;-75
2024/02/21 09:16:09;;;;;;;;;;;;;;;;;;5102771;28;20471;-75
2024/02/21 09:18:35;;;;;;;;;;;;;;;;;;5100855;28;19924;-74
2024/02/21 09:21:02;;;;;;;;;;;;;;;;;;5104697;28;19924;-75
2024/02/21 09:23:29;;;;;;;;;;;;;;;;;;5113087;28;19931;-74
2024/02/21 09:25:55;;;;;;;;;;;;;;;;;;5106363;28;20021;-74
2024/02/21 09:28:22;;;;;;;;;;;;;;;;;;5106040;28;19924;-77
2024/02/21 09:30:49;;;;;;;;;;;;;;;;;;5105230;28;20323;-76
2024/02/21 09:33:15;;;;;;;;;;;;;;;;;;5110606;28;20008;-73
2024/02/21 09:35:52;;;;;;;;;;;;;;;;;;5107759;28;19924;-76
2024/02/21 09:38:19;;;;;;;;;;;;;;;;;;5104414;28;19959;-77
2024/02/21 09:40:47;;;;;;;;;;;;;;;;;;5111382;28;19963;-76
2024/02/21 09:43:14;;;;;;;;;;;;;;;;;;5120521;27;19925;-76
2024/02/21 09:45:40;;;;;;;;;;;;;;;;;;5095644;28;19928;-73
2024/02/21 09:48:07;;;;;;;;;;;;;;;;;;5102027;28;20011;-75
2024/02/21 09:50:33;;;;;;;;;;;;;;;;;;5102523;28;20372;-74
2024/02/21 09:53:01;;;;;;;;;;;;;;;;;;5101772;28;19955;-74
2024/02/21 09:55:28;;;;;;;;;;;;;;;;;;5081713;28;20421;-77
2024/02/21 09:57:55;;;;;;;;;;;;;;;;;;5110665;28;19966;-75
2024/02/21 10:00:23;;;;;;;;;;;;;;;;;;5095610;28;19924;-74
2024/02/21 10:02:50;;;;;;;;;;;;;;;;;;5105112;28;19924;-76
2024/02/21 10:05:17;;;;;;;;;;;;;;;;;;5101257;28;20327;-74
2024/02/21 10:07:43;;;;;;;;;;;;;;;;;;5105970;28;19924;-73
2024/02/21 10:10:10;;;;;;;;;;;;;;;;;;5097538;28;19935;-75
2024/02/21 10:12:36;;;;;;;;;;;;;;;;;;5106218;28;19946;-76
2024/02/21 10:15:03;;;;;;;;;;;;;;;;;;5109069;28;19924;-74
2024/02/21 10:17:29;;;;;;;;;;;;;;;;;;5107802;28;19928;-76
2024/02/21 10:19:56;;;;;;;;;;;;;;;;;;5107425;28;20368;-76
2024/02/21 10:22:23;;;;;;;;;;;;;;;;;;5112795;28;20442;-74
2024/02/21 10:24:49;;;;;;;;;;;;;;;;;;5107348;28;19946;-76
2024/02/21 10:27:16;;;;;;;;;;;;;;;;;;5099270;28;19928;-73
2024/02/21 10:29:42;;;;;;;;;;;;;;;;;;5110922;28;19923;-75
2024/02/21 10:32:09;;;;;;;;;;;;;;;;;;5101074;28;19924;-76
2024/02/21 10:34:35;;;;;;;;;;;;;;;;;;5104376;28;19924;-75
2024/02/21 10:37:02;;;;;;;;;;;;;;;;;;5101089;28;19928;-74
2024/02/21 10:39:28;;;;;;;;;;;;;;;;;;5107913;28;20010;-74
2024/02/21 10:41:57;;;;;;;;;;;;;;;;;;5104834;28;19927;-75
2024/02/21 10:44:23;;;;;;;;;;;;;;;;;;5103693;28;19924;-74
2024/02/21 10:46:50;;;;;;;;;;;;;;;;;;5100690;28;20019;-78
2024/02/21 10:49:16;;;;;;;;;;;;;;;;;;5106197;28;19950;-74
2024/02/21 10:51:42;;;;;;;;;;;;;;;;;;5104344;28;19984;-76
2024/02/21 10:54:09;;;;;;;;;;;;;;;;;;5104570;28;19930;-75
2024/02/21 10:56:36;;;;;;;;;;;;;;;;;;5107443;28;19924;-76
2024/02/21 10:59:03;;;;;;;;;;;;;;;;;;5105793;28;19924;-75
2024/02/21 11:01:31;;;;;;;;;;;;;;;;;;5110728;28;20011;-76
2024/02/21 11:03:57;;;;;;;;;;;;;;;;;;5100398;28;20287;-77
2024/02/21 11:06:24;;;;;;;;;;;;;;;;;;5098793;28;20443;-77
2024/02/21 11:08:50;;;;;;;;;;;;;;;;;;5101582;28;19930;-77
2024/02/21 11:11:18;;;;;;;;;;;;;;;;;;5106756;28;19924;-76
2024/02/21 11:13:53;;;;;;;;;;;;;;;;;;5108283;28;19931;-77
2024/02/21 11:16:19;;;;;;;;;;;;;;;;;;5106514;28;19924;-76
2024/02/21 11:18:46;;;;;;;;;;;;;;;;;;5105399;28;19970;-76
2024/02/21 11:21:12;;;;;;;;;;;;;;;;;;5108524;28;19928;-78
2024/02/21 11:23:39;;;;;;;;;;;;;;;;;;5105197;28;19924;-80
2024/02/21 11:26:05;;;;;;;;;;;;;;;;;;5107988;28;19963;-79
2024/02/21 11:28:32;;;;;;;;;;;;;;;;;;5105872;28;19927;-78
2024/02/21 11:30:58;;;;;;;;;;;;;;;;;;5106526;28;19947;-79
2024/02/21 11:33:25;;;;;;;;;;;;;;;;;;5097116;28;20392;-79
2024/02/21 11:35:53;;;;;;;;;;;;;;;;;;5102627;28;19932;-79
2024/02/21 11:38:22;;;;;;;;;;;;;;;;;;5107667;28;19977;-80
2024/02/21 11:40:49;;;;;;;;;;;;;;;;;;5100663;28;20392;-78
2024/02/21 11:43:15;;;;;;;;;;;;;;;;;;5106431;28;20596;-78
2024/02/21 11:45:42;;;;;;;;;;;;;;;;;;5093829;28;20447;-80
2024/02/21 11:48:08;;;;;;;;;;;;;;;;;;5104040;28;19923;-78
2024/02/21 11:50:35;;;;;;;;;;;;;;;;;;5106707;28;20023;-79
2024/02/21 11:53:01;;;;;;;;;;;;;;;;;;5103059;28;20342;-78
2024/02/21 11:55:28;;;;;;;;;;;;;;;;;;5105439;28;19977;-78
2024/02/21 11:57:54;;;;;;;;;;;;;;;;;;5107022;28;20372;-78
2024/02/21 12:00:20;;;;;;;;;;;;;;;;;;5102291;28;19930;-79
2024/02/21 12:02:47;;;;;;;;;;;;;;;;;;5103311;28;20284;-77
2024/02/21 12:05:13;;;;;;;;;;;;;;;;;;5102329;28;19924;-77
2024/02/21 12:07:40;;;;;;;;;;;;;;;;;;5109185;28;19924;-79
2024/02/21 12:10:06;;;;;;;;;;;;;;;;;;5107407;28;20003;-80
2024/02/21 12:12:36;;;;;;;;;;;;;;;;;;5103792;28;20020;-79
2024/02/21 12:15:04;;;;;;;;;;;;;;;;;;5107047;28;19942;-79
2024/02/21 12:17:30;;;;;;;;;;;;;;;;;;5098998;28;19927;-78
2024/02/21 12:19:57;;;;;;;;;;;;;;;;;;5103154;28;19931;-79
2024/02/21 12:22:23;;;;;;;;;;;;;;;;;;5102627;28;19928;-79
2024/02/21 12:24:50;;;;;;;;;;;;;;;;;;5101850;28;20011;-78
2024/02/21 12:27:16;;;;;;;;;;;;;;;;;;5106874;28;20006;-79
2024/02/21 12:29:42;;;;;;;;;;;;;;;;;;5113132;28;20022;-79
2024/02/21 12:32:09;;;;;;;;;;;;;;;;;;5108444;27;20436;-80
2024/02/21 12:34:36;;;;;;;;;;;;;;;;;;5113833;28;19927;-80
2024/02/21 12:37:13;;;;;;;;;;;;;;;;;;5109837;27;20009;-80
2024/02/21 12:39:39;;;;;;;;;;;;;;;;;;5105603;28;19947;-79
2024/02/21 12:42:06;;;;;;;;;;;;;;;;;;5105370;28;20400;-81
2024/02/21 12:44:33;;;;;;;;;;;;;;;;;;5112036;28;20337;-80
2024/02/21 12:47:00;;;;;;;;;;;;;;;;;;5085225;28;19924;-79
2024/02/21 12:49:29;;;;;;;;;;;;;;;;;;5100715;28;20284;-77
2024/02/21 12:51:55;;;;;;;;;;;;;;;;;;5111883;27;19930;-78
2024/02/21 12:54:22;;;;;;;;;;;;;;;;;;5108693;28;19928;-78
2024/02/21 12:56:48;;;;;;;;;;;;;;;;;;5107281;28;19932;-80
2024/02/21 12:59:16;;;;;;;;;;;;;;;;;;5110001;28;19945;-76
2024/02/21 13:01:43;;;;;;;;;;;;;;;;;;5112966;28;19924;-79
2024/02/21 13:04:09;;;;;;;;;;;;;;;;;;5107520;28;20575;-77
2024/02/21 13:06:36;;;;;;;;;;;;;;;;;;5116444;28;19930;-77
2024/02/21 13:09:07;;;;;;;;;;;;;;;;;;5107814;28;19924;-77
2024/02/21 13:11:33;;;;;;;;;;;;;;;;;;5112788;28;20384;-79
2024/02/21 13:14:00;;;;;;;;;;;;;;;;;;5103799;28;19959;-77
2024/02/21 13:16:27;;;;;;;;;;;;;;;;;;5110697;28;19927;-76
2024/02/21 13:18:53;;;;;;;;;;;;;;;;;;5116261;27;19924;-80
2024/02/21 13:21:20;;;;;;;;;;;;;;;;;;5115204;27;19924;-79
2024/02/21 13:23:47;;;;;;;;;;;;;;;;;;5106594;27;19955;-78
2024/02/21 13:26:14;;;;;;;;;;;;;;;;;;5111271;27;20297;-77
2024/02/21 13:28:40;;;;;;;;;;;;;;;;;;5112798;27;19930;-78
2024/02/21 13:31:07;;;;;;;;;;;;;;;;;;5089090;28;19924;-79
2024/02/21 13:33:33;;;;;;;;;;;;;;;;;;5114971;28;19928;-78
2024/02/21 13:36:01;;;;;;;;;;;;;;;;;;5107434;28;19924;-78
2024/02/21 13:38:28;;;;;;;;;;;;;;;;;;5110752;28;20368;-75
2024/02/21 13:40:54;;;;;;;;;;;;;;;;;;5084251;28;19924;-77
2024/02/21 13:43:21;;;;;;;;;;;;;;;;;;5101279;28;19935;-76
2024/02/21 13:45:49;;;;;;;;;;;;;;;;;;5103181;28;19969;-79
2024/02/21 13:48:16;;;;;;;;;;;;;;;;;;5105860;28;20365;-77
2024/02/21 13:50:43;;;;;;;;;;;;;;;;;;5105303;28;19934;-76
2024/02/21 13:53:10;;;;;;;;;;;;;;;;;;5101234;28;20359;-78
2024/02/21 13:55:36;;;;;;;;;;;;;;;;;;5099306;28;19931;-76
2024/02/21 13:58:03;;;;;;;;;;;;;;;;;;5105051;28;19977;-79
2024/02/21 14:00:29;;;;;;;;;;;;;;;;;;5102925;28;20047;-79
2024/02/21 14:02:57;;;;;;;;;;;;;;;;;;5105634;28;19924;-80
2024/02/21 14:05:24;;;;;;;;;;;;;;;;;;5102564;28;20431;-78
2024/02/21 14:07:50;;;;;;;;;;;;;;;;;;5105708;28;19989;-78
2024/02/21 14:10:18;;;;;;;;;;;;;;;;;;5114370;28;19924;-79
2024/02/21 14:12:44;;;;;;;;;;;;;;;;;;5090997;28;19925;-78
2024/02/21 14:15:11;;;;;;;;;;;;;;;;;;5100638;28;20111;-79
2024/02/21 14:17:39;;;;;;;;;;;;;;;;;;5103579;28;19934;-77
2024/02/21 14:20:05;;;;;;;;;;;;;;;;;;5106162;28;19928;-78
2024/02/21 14:22:31;;;;;;;;;;;;;;;;;;5106997;28;20442;-79
2024/02/21 14:24:58;;;;;;;;;;;;;;;;;;5095570;28;19970;-78
2024/02/21 14:27:25;;;;;;;;;;;;;;;;;;5105786;28;20006;-78
2024/02/21 14:29:51;;;;;;;;;;;;;;;;;;5100176;28;20393;-77
2024/02/21 14:32:17;;;;;;;;;;;;;;;;;;5107334;28;19927;-78
2024/02/21 14:34:44;;;;;;;;;;;;;;;;;;5108711;28;20362;-78
2024/02/21 14:37:10;;;;;;;;;;;;;;;;;;5103480;28;19924;-78
2024/02/21 14:39:37;;;;;;;;;;;;;;;;;;5101312;28;19931;-79
2024/02/21 14:42:03;;;;;;;;;;;;;;;;;;5101497;28;19939;-77
2024/02/21 14:44:29;;;;;;;;;;;;;;;;;;5104948;28;19967;-78
2024/02/21 14:46:56;;;;;;;;;;;;;;;;;;5093465;28;19925;-76
2024/02/21 14:49:22;;;;;;;;;;;;;;;;;;5110918;28;19969;-78
2024/02/21 14:51:49;;;;;;;;;;;;;;;;;;5098571;28;19985;-77
2024/02/21 14:54:15;;;;;;;;;;;;;;;;;;5102723;28;19924;-77
2024/02/21 14:56:43;;;;;;;;;;;;;;;;;;5096862;28;20023;-79
2024/02/21 14:59:09;;;;;;;;;;;;;;;;;;5102099;28;20287;-77
2024/02/21 15:01:43;;;;;;;;;;;;;;;;;;5106256;28;19977;-78
2024/02/21 15:04:09;;;;;;;;;;;;;;;;;;5099449;28;19977;-78
2024/02/21 15:06:37;;;;;;;;;;;;;;;;;;5109610;28;20331;-77
2024/02/21 15:09:03;;;;;;;;;;;;;;;;;;5104170;28;19923;-78
2024/02/21 15:11:29;;;;;;;;;;;;;;;;;;5106068;28;19923;-78
2024/02/21 15:13:56;;;;;;;;;;;;;;;;;;5100713;28;19931;-78
2024/02/21 15:16:22;;;;;;;;;;;;;;;;;;5110398;28;19990;-79
2024/02/21 15:18:49;;;;;;;;;;;;;;;;;;5106812;28;19972;-77
2024/02/21 15:21:15;;;;;;;;;;;;;;;;;;5098085;28;19924;-78
2024/02/21 15:23:42;;;;;;;;;;;;;;;;;;5101377;28;20558;-78
2024/02/21 15:26:08;;;;;;;;;;;;;;;;;;5102550;28;19924;-78
2024/02/21 15:28:34;;;;;;;;;;;;;;;;;;5096904;28;20715;-77
2024/02/21 15:31:01;;;;;;;;;;;;;;;;;;5106262;28;19967;-78
2024/02/21 15:33:27;;;;;;;;;;;;;;;;;;5103404;28;20011;-78
2024/02/21 15:35:54;;;;;;;;;;;;;;;;;;5109572;28;19985;-78
2024/02/21 15:38:21;;;;;;;;;;;;;;;;;;5089334;28;20411;-79
2024/02/21 15:40:47;;;;;;;;;;;;;;;;;;5104900;28;19971;-80
2024/02/21 15:43:13;;;;;;;;;;;;;;;;;;5099778;28;19924;-78
2024/02/21 15:45:40;;;;;;;;;;;;;;;;;;5099112;28;19928;-78
2024/02/21 15:48:06;;;;;;;;;;;;;;;;;;5103953;28;19924;-78
2024/02/21 15:50:33;;;;;;;;;;;;;;;;;;5103719;28;19928;-78
2024/02/21 15:52:59;;;;;;;;;;;;;;;;;;5102079;28;19964;-79
2024/02/21 15:55:25;;;;;;;;;;;;;;;;;;5101214;28;19924;-78
2024/02/21 15:57:52;;;;;;;;;;;;;;;;;;5097353;28;20365;-78
2024/02/21 16:00:18;;;;;;;;;;;;;;;;;;5096893;28;20318;-78
2024/02/21 16:02:45;;;;;;;;;;;;;;;;;;5104147;28;19986;-78
2024/02/21 16:05:11;;;;;;;;;;;;;;;;;;5104855;28;19977;-79
2024/02/21 16:07:38;;;;;;;;;;;;;;;;;;5105953;28;20026;-79
2024/02/21 16:10:05;;;;;;;;;;;;;;;;;;5098549;28;20006;-79
2024/02/21 16:12:31;;;;;;;;;;;;;;;;;;5110438;28;19963;-78
2024/02/21 16:14:59;;;;;;;;;;;;;;;;;;5106761;28;20369;-78
2024/02/21 16:17:26;;;;;;;;;;;;;;;;;;5101361;28;19938;-79
2024/02/21 16:19:52;;;;;;;;;;;;;;;;;;5108137;28;20207;-78
2024/02/21 16:22:19;;;;;;;;;;;;;;;;;;5105477;28;19924;-78
2024/02/21 16:24:46;;;;;;;;;;;;;;;;;;5099019;28;20022;-78
2024/02/21 16:27:15;;;;;;;;;;;;;;;;;;5105339;28;20345;-79
2024/02/21 16:29:41;;;;;;;;;;;;;;;;;;5102198;28;20015;-79
2024/02/21 16:32:08;;;;;;;;;;;;;;;;;;5105515;28;20341;-76
2024/02/21 16:34:35;;;;;;;;;;;;;;;;;;5094301;28;20401;-77
2024/02/21 16:37:02;;;;;;;;;;;;;;;;;;5100864;28;19935;-78
2024/02/21 16:39:28;;;;;;;;;;;;;;;;;;5104711;28;19966;-78
2024/02/21 16:41:57;;;;;;;;;;;;;;;;;;5099701;28;19947;-79